sensor_id;sensor_type;location;lat;lon;timestamp;P1;durP1;ratioP1;P2;durP2;ratioP2
47161;SDS011;32921;53.256;8.198;2022-09-13T00:00:33;40.80;;;28.55;;
47161;SDS011;32921;53.256;8.198;2022-09-13T00:02:59;44.58;;;29.88;;
47161;SDS011;32921;53.256;8.198;2022-09-13T00:05:25;45.40;;;31.05;;
47161;SDS011;32921;53.256;8.198;2022-09-13T00:07:51;48.15;;;30.73;;
47161;SDS011;32921;53.256;8.198;2022-09-13T00:10:16;43.63;;;30.77;;
47161;SDS011;32921;53.256;8.198;2022-09-13T00:12:42;43.40;;;30.65;;
47161;SDS011;32921;53.256;8.198;2022-09-13T00:15:08;49.58;;;32.65;;
47161;SDS011;32921;53.256;8.198;2022-09-13T00:17:34;51.80;;;33.75;;
47161;SDS011;32921;53.256;8.198;2022-09-13T00:19:59;49.15;;;32.17;;
47161;SDS011;32921;53.256;8.198;2022-09-13T00:22:25;47.42;;;31.55;;
47161;SDS011;32921;53.256;8.198;2022-09-13T00:24:51;48.95;;;32.80;;
47161;SDS011;32921;53.256;8.198;2022-09-13T00:27:17;48.90;;;31.98;;
47161;SDS011;32921;53.256;8.198;2022-09-13T00:29:43;45.05;;;31.30;;
47161;SDS011;32921;53.256;8.198;2022-09-13T00:32:08;49.38;;;31.05;;
47161;SDS011;32921;53.256;8.198;2022-09-13T00:34:34;45.65;;;31.73;;
47161;SDS011;32921;53.256;8.198;2022-09-13T00:36:59;45.03;;;30.95;;
47161;SDS011;32921;53.256;8.198;2022-09-13T00:39:25;46.75;;;31.02;;
47161;SDS011;32921;53.256;8.198;2022-09-13T00:41:51;44.35;;;30.33;;
47161;SDS011;32921;53.256;8.198;2022-09-13T00:47:11;48.38;;;33.58;;
47161;SDS011;32921;53.256;8.198;2022-09-13T00:49:39;51.00;;;33.95;;
47161;SDS011;32921;53.256;8.198;2022-09-13T00:52:09;51.67;;;32.28;;
47161;SDS011;32921;53.256;8.198;2022-09-13T00:54:41;49.03;;;34.30;;
47161;SDS011;32921;53.256;8.198;2022-09-13T00:57:12;48.80;;;32.33;;
47161;SDS011;32921;53.256;8.198;2022-09-13T00:59:42;52.40;;;33.78;;
47161;SDS011;32921;53.256;8.198;2022-09-13T01:02:14;46.60;;;32.65;;
47161;SDS011;32921;53.256;8.198;2022-09-13T01:04:40;45.55;;;31.65;;
47161;SDS011;32921;53.256;8.198;2022-09-13T01:07:07;41.28;;;30.58;;
47161;SDS011;32921;53.256;8.198;2022-09-13T01:09:37;46.20;;;33.13;;
47161;SDS011;32921;53.256;8.198;2022-09-13T01:12:07;46.25;;;31.80;;
47161;SDS011;32921;53.256;8.198;2022-09-13T01:14:47;42.08;;;30.60;;
47161;SDS011;32921;53.256;8.198;2022-09-13T01:17:13;43.88;;;30.23;;
47161;SDS011;32921;53.256;8.198;2022-09-13T01:19:40;45.72;;;30.42;;
47161;SDS011;32921;53.256;8.198;2022-09-13T01:22:10;48.75;;;33.47;;
47161;SDS011;32921;53.256;8.198;2022-09-13T01:27:46;39.42;;;28.83;;
47161;SDS011;32921;53.256;8.198;2022-09-13T01:30:22;42.53;;;29.73;;
47161;SDS011;32921;53.256;8.198;2022-09-13T01:32:54;38.22;;;28.02;;
47161;SDS011;32921;53.256;8.198;2022-09-13T01:35:33;43.78;;;29.65;;
47161;SDS011;32921;53.256;8.198;2022-09-13T01:41:15;41.65;;;31.33;;
47161;SDS011;32921;53.256;8.198;2022-09-13T01:44:29;41.17;;;29.85;;
47161;SDS011;32921;53.256;8.198;2022-09-13T01:52:44;48.83;;;31.63;;
47161;SDS011;32921;53.256;8.198;2022-09-13T02:01:07;51.67;;;35.53;;
47161;SDS011;32921;53.256;8.198;2022-09-13T02:03:53;49.17;;;34.83;;
47161;SDS011;32921;53.256;8.198;2022-09-13T02:06:27;50.17;;;34.20;;
47161;SDS011;32921;53.256;8.198;2022-09-13T02:09:02;49.28;;;32.78;;
47161;SDS011;32921;53.256;8.198;2022-09-13T02:11:35;50.17;;;33.90;;
47161;SDS011;32921;53.256;8.198;2022-09-13T02:16:38;50.70;;;33.83;;
47161;SDS011;32921;53.256;8.198;2022-09-13T02:19:16;44.85;;;32.95;;
47161;SDS011;32921;53.256;8.198;2022-09-13T02:21:49;46.47;;;31.02;;
47161;SDS011;32921;53.256;8.198;2022-09-13T02:24:24;46.90;;;30.85;;
47161;SDS011;32921;53.256;8.198;2022-09-13T02:27:07;44.08;;;31.55;;
47161;SDS011;32921;53.256;8.198;2022-09-13T02:29:35;45.85;;;29.92;;
47161;SDS011;32921;53.256;8.198;2022-09-13T02:34:45;48.13;;;30.55;;
47161;SDS011;32921;53.256;8.198;2022-09-13T02:37:16;45.13;;;29.10;;
47161;SDS011;32921;53.256;8.198;2022-09-13T02:39:46;43.80;;;29.92;;
47161;SDS011;32921;53.256;8.198;2022-09-13T02:42:18;43.83;;;30.33;;
47161;SDS011;32921;53.256;8.198;2022-09-13T02:45:00;43.50;;;30.00;;
47161;SDS011;32921;53.256;8.198;2022-09-13T02:47:38;46.65;;;30.25;;
47161;SDS011;32921;53.256;8.198;2022-09-13T03:01:14;46.65;;;30.65;;
47161;SDS011;32921;53.256;8.198;2022-09-13T03:03:40;42.50;;;28.77;;
47161;SDS011;32921;53.256;8.198;2022-09-13T03:06:05;46.72;;;30.33;;
47161;SDS011;32921;53.256;8.198;2022-09-13T03:08:31;47.83;;;30.73;;
47161;SDS011;32921;53.256;8.198;2022-09-13T03:11:01;51.15;;;31.55;;
47161;SDS011;32921;53.256;8.198;2022-09-13T03:13:52;51.92;;;30.38;;
47161;SDS011;32921;53.256;8.198;2022-09-13T03:16:35;42.60;;;28.67;;
47161;SDS011;32921;53.256;8.198;2022-09-13T03:25:30;45.83;;;28.23;;
47161;SDS011;32921;53.256;8.198;2022-09-13T03:36:41;50.28;;;31.02;;
47161;SDS011;32921;53.256;8.198;2022-09-13T03:39:24;47.35;;;29.27;;
47161;SDS011;32921;53.256;8.198;2022-09-13T03:41:54;51.75;;;30.65;;
47161;SDS011;32921;53.256;8.198;2022-09-13T03:44:23;49.33;;;30.27;;
47161;SDS011;32921;53.256;8.198;2022-09-13T03:46:53;52.40;;;29.85;;
47161;SDS011;32921;53.256;8.198;2022-09-13T03:49:24;50.30;;;28.50;;
47161;SDS011;32921;53.256;8.198;2022-09-13T03:51:51;46.42;;;27.67;;
47161;SDS011;32921;53.256;8.198;2022-09-13T03:54:28;45.85;;;27.73;;
47161;SDS011;32921;53.256;8.198;2022-09-13T03:59:42;42.70;;;27.23;;
47161;SDS011;32921;53.256;8.198;2022-09-13T04:02:10;44.33;;;26.70;;
47161;SDS011;32921;53.256;8.198;2022-09-13T04:04:37;43.00;;;26.88;;
47161;SDS011;32921;53.256;8.198;2022-09-13T04:07:03;45.28;;;26.80;;
47161;SDS011;32921;53.256;8.198;2022-09-13T04:09:29;44.40;;;27.48;;
47161;SDS011;32921;53.256;8.198;2022-09-13T04:11:55;46.00;;;28.35;;
47161;SDS011;32921;53.256;8.198;2022-09-13T04:14:21;43.97;;;27.13;;
47161;SDS011;32921;53.256;8.198;2022-09-13T04:16:50;44.15;;;27.20;;
47161;SDS011;32921;53.256;8.198;2022-09-13T04:19:20;42.35;;;27.15;;
47161;SDS011;32921;53.256;8.198;2022-09-13T04:21:46;43.28;;;27.17;;
47161;SDS011;32921;53.256;8.198;2022-09-13T04:24:13;49.25;;;28.73;;
47161;SDS011;32921;53.256;8.198;2022-09-13T04:26:40;48.05;;;28.63;;
47161;SDS011;32921;53.256;8.198;2022-09-13T04:29:06;48.47;;;26.98;;
47161;SDS011;32921;53.256;8.198;2022-09-13T04:31:32;50.55;;;28.60;;
47161;SDS011;32921;53.256;8.198;2022-09-13T04:33:57;47.42;;;28.77;;
47161;SDS011;32921;53.256;8.198;2022-09-13T04:36:24;49.38;;;28.83;;
47161;SDS011;32921;53.256;8.198;2022-09-13T04:38:50;49.60;;;29.02;;
47161;SDS011;32921;53.256;8.198;2022-09-13T04:41:15;50.33;;;29.85;;
47161;SDS011;32921;53.256;8.198;2022-09-13T04:43:41;55.95;;;30.30;;
47161;SDS011;32921;53.256;8.198;2022-09-13T04:46:07;55.45;;;30.65;;
47161;SDS011;32921;53.256;8.198;2022-09-13T04:48:32;59.65;;;30.67;;
47161;SDS011;32921;53.256;8.198;2022-09-13T04:51:02;51.10;;;29.90;;
47161;SDS011;32921;53.256;8.198;2022-09-13T04:53:29;49.22;;;29.45;;
47161;SDS011;32921;53.256;8.198;2022-09-13T04:56:01;53.35;;;29.35;;
47161;SDS011;32921;53.256;8.198;2022-09-13T04:58:27;47.65;;;29.70;;
47161;SDS011;32921;53.256;8.198;2022-09-13T05:00:59;42.80;;;27.35;;
47161;SDS011;32921;53.256;8.198;2022-09-13T05:03:25;51.63;;;29.50;;
47161;SDS011;32921;53.256;8.198;2022-09-13T05:05:54;50.22;;;28.75;;
47161;SDS011;32921;53.256;8.198;2022-09-13T05:08:19;45.85;;;26.77;;
47161;SDS011;32921;53.256;8.198;2022-09-13T05:10:45;45.05;;;28.02;;
47161;SDS011;32921;53.256;8.198;2022-09-13T05:13:11;44.08;;;27.77;;
47161;SDS011;32921;53.256;8.198;2022-09-13T05:15:36;44.65;;;27.35;;
47161;SDS011;32921;53.256;8.198;2022-09-13T05:18:02;50.33;;;29.73;;
47161;SDS011;32921;53.256;8.198;2022-09-13T05:20:27;45.97;;;27.75;;
47161;SDS011;32921;53.256;8.198;2022-09-13T05:22:54;46.67;;;28.50;;
47161;SDS011;32921;53.256;8.198;2022-09-13T05:25:19;48.92;;;28.15;;
47161;SDS011;32921;53.256;8.198;2022-09-13T05:27:45;46.38;;;27.38;;
47161;SDS011;32921;53.256;8.198;2022-09-13T05:30:11;51.70;;;28.33;;
47161;SDS011;32921;53.256;8.198;2022-09-13T05:32:37;40.95;;;25.92;;
47161;SDS011;32921;53.256;8.198;2022-09-13T05:35:02;44.95;;;26.58;;
47161;SDS011;32921;53.256;8.198;2022-09-13T05:37:28;42.08;;;25.90;;
47161;SDS011;32921;53.256;8.198;2022-09-13T05:39:53;46.08;;;27.73;;
47161;SDS011;32921;53.256;8.198;2022-09-13T05:42:19;41.53;;;25.95;;
47161;SDS011;32921;53.256;8.198;2022-09-13T05:44:51;41.45;;;25.63;;
47161;SDS011;32921;53.256;8.198;2022-09-13T05:47:17;41.17;;;24.15;;
47161;SDS011;32921;53.256;8.198;2022-09-13T05:49:42;45.03;;;24.58;;
47161;SDS011;32921;53.256;8.198;2022-09-13T05:52:08;39.03;;;23.38;;
47161;SDS011;32921;53.256;8.198;2022-09-13T05:54:33;36.05;;;22.40;;
47161;SDS011;32921;53.256;8.198;2022-09-13T05:57:00;37.88;;;23.10;;
47161;SDS011;32921;53.256;8.198;2022-09-13T05:59:26;31.42;;;21.23;;
47161;SDS011;32921;53.256;8.198;2022-09-13T06:01:52;30.88;;;20.52;;
47161;SDS011;32921;53.256;8.198;2022-09-13T06:04:17;33.45;;;20.45;;
47161;SDS011;32921;53.256;8.198;2022-09-13T06:06:43;31.55;;;18.88;;
47161;SDS011;32921;53.256;8.198;2022-09-13T06:09:09;29.98;;;19.27;;
47161;SDS011;32921;53.256;8.198;2022-09-13T06:11:35;26.60;;;18.23;;
47161;SDS011;32921;53.256;8.198;2022-09-13T06:14:01;25.45;;;16.52;;
47161;SDS011;32921;53.256;8.198;2022-09-13T06:16:26;27.73;;;17.35;;
47161;SDS011;32921;53.256;8.198;2022-09-13T06:18:52;24.77;;;16.45;;
47161;SDS011;32921;53.256;8.198;2022-09-13T06:21:19;23.60;;;15.88;;
47161;SDS011;32921;53.256;8.198;2022-09-13T06:23:46;24.80;;;16.35;;
47161;SDS011;32921;53.256;8.198;2022-09-13T06:26:14;26.67;;;16.30;;
47161;SDS011;32921;53.256;8.198;2022-09-13T06:28:40;29.08;;;15.77;;
47161;SDS011;32921;53.256;8.198;2022-09-13T06:31:08;23.77;;;16.58;;
47161;SDS011;32921;53.256;8.198;2022-09-13T06:33:38;25.80;;;15.60;;
47161;SDS011;32921;53.256;8.198;2022-09-13T06:36:06;23.17;;;15.38;;
47161;SDS011;32921;53.256;8.198;2022-09-13T06:38:38;22.00;;;15.20;;
47161;SDS011;32921;53.256;8.198;2022-09-13T06:43:31;23.88;;;15.23;;
47161;SDS011;32921;53.256;8.198;2022-09-13T06:45:58;24.42;;;15.05;;
47161;SDS011;32921;53.256;8.198;2022-09-13T06:48:25;22.08;;;15.00;;
47161;SDS011;32921;53.256;8.198;2022-09-13T06:50:51;23.60;;;14.88;;
47161;SDS011;32921;53.256;8.198;2022-09-13T06:53:17;20.50;;;13.63;;
47161;SDS011;32921;53.256;8.198;2022-09-13T06:55:42;21.02;;;14.18;;
47161;SDS011;32921;53.256;8.198;2022-09-13T06:58:08;21.85;;;13.38;;
47161;SDS011;32921;53.256;8.198;2022-09-13T07:00:33;19.20;;;14.93;;
47161;SDS011;32921;53.256;8.198;2022-09-13T07:02:59;23.27;;;14.82;;
47161;SDS011;32921;53.256;8.198;2022-09-13T07:05:24;21.63;;;15.23;;
47161;SDS011;32921;53.256;8.198;2022-09-13T07:07:50;21.23;;;13.63;;
47161;SDS011;32921;53.256;8.198;2022-09-13T07:10:16;22.88;;;14.45;;
47161;SDS011;32921;53.256;8.198;2022-09-13T07:12:41;29.15;;;14.70;;
47161;SDS011;32921;53.256;8.198;2022-09-13T07:15:07;22.83;;;14.70;;
47161;SDS011;32921;53.256;8.198;2022-09-13T07:17:33;25.52;;;13.77;;
47161;SDS011;32921;53.256;8.198;2022-09-13T07:19:59;21.83;;;13.50;;
47161;SDS011;32921;53.256;8.198;2022-09-13T07:22:24;22.00;;;13.05;;
47161;SDS011;32921;53.256;8.198;2022-09-13T07:24:52;21.00;;;12.07;;
47161;SDS011;32921;53.256;8.198;2022-09-13T07:27:17;18.63;;;9.70;;
47161;SDS011;32921;53.256;8.198;2022-09-13T07:29:43;17.60;;;9.27;;
47161;SDS011;32921;53.256;8.198;2022-09-13T07:32:08;18.20;;;8.82;;
47161;SDS011;32921;53.256;8.198;2022-09-13T07:34:34;17.83;;;8.48;;
47161;SDS011;32921;53.256;8.198;2022-09-13T07:36:59;14.98;;;7.80;;
47161;SDS011;32921;53.256;8.198;2022-09-13T07:39:26;14.25;;;7.38;;
47161;SDS011;32921;53.256;8.198;2022-09-13T07:41:51;13.80;;;5.80;;
47161;SDS011;32921;53.256;8.198;2022-09-13T07:44:17;18.88;;;5.50;;
47161;SDS011;32921;53.256;8.198;2022-09-13T07:46:43;13.88;;;4.40;;
47161;SDS011;32921;53.256;8.198;2022-09-13T07:49:10;14.25;;;3.90;;
47161;SDS011;32921;53.256;8.198;2022-09-13T07:51:37;12.90;;;3.40;;
47161;SDS011;32921;53.256;8.198;2022-09-13T07:54:05;12.95;;;3.25;;
47161;SDS011;32921;53.256;8.198;2022-09-13T07:56:35;12.32;;;3.25;;
47161;SDS011;32921;53.256;8.198;2022-09-13T07:59:03;10.60;;;3.38;;
47161;SDS011;32921;53.256;8.198;2022-09-13T08:01:36;9.70;;;2.70;;
47161;SDS011;32921;53.256;8.198;2022-09-13T08:04:08;12.40;;;2.63;;
47161;SDS011;32921;53.256;8.198;2022-09-13T08:06:36;9.93;;;2.50;;
47161;SDS011;32921;53.256;8.198;2022-09-13T08:09:04;13.05;;;2.78;;
47161;SDS011;32921;53.256;8.198;2022-09-13T08:14:07;8.93;;;1.90;;
47161;SDS011;32921;53.256;8.198;2022-09-13T08:16:34;10.60;;;1.70;;
47161;SDS011;32921;53.256;8.198;2022-09-13T08:19:00;9.25;;;1.70;;
47161;SDS011;32921;53.256;8.198;2022-09-13T08:21:32;10.70;;;1.55;;
47161;SDS011;32921;53.256;8.198;2022-09-13T08:26:25;5.95;;;1.00;;
47161;SDS011;32921;53.256;8.198;2022-09-13T08:28:58;8.30;;;1.23;;
47161;SDS011;32921;53.256;8.198;2022-09-13T08:31:25;9.38;;;1.25;;
47161;SDS011;32921;53.256;8.198;2022-09-13T08:33:52;6.43;;;1.10;;
47161;SDS011;32921;53.256;8.198;2022-09-13T08:36:18;7.70;;;1.40;;
47161;SDS011;32921;53.256;8.198;2022-09-13T08:38:48;10.15;;;1.38;;
47161;SDS011;32921;53.256;8.198;2022-09-13T08:44:04;10.15;;;1.27;;
47161;SDS011;32921;53.256;8.198;2022-09-13T08:46:47;10.30;;;1.23;;
47161;SDS011;32921;53.256;8.198;2022-09-13T08:49:19;10.13;;;1.30;;
47161;SDS011;32921;53.256;8.198;2022-09-13T08:51:49;8.98;;;1.35;;
47161;SDS011;32921;53.256;8.198;2022-09-13T08:54:17;9.95;;;1.13;;
47161;SDS011;32921;53.256;8.198;2022-09-13T08:59:53;7.55;;;1.10;;
47161;SDS011;32921;53.256;8.198;2022-09-13T09:05:32;8.88;;;1.05;;
47161;SDS011;32921;53.256;8.198;2022-09-13T09:10:52;8.23;;;1.15;;
47161;SDS011;32921;53.256;8.198;2022-09-13T09:15:55;7.38;;;1.23;;
47161;SDS011;32921;53.256;8.198;2022-09-13T09:18:34;7.20;;;1.08;;
47161;SDS011;32921;53.256;8.198;2022-09-13T09:21:03;12.13;;;1.15;;
47161;SDS011;32921;53.256;8.198;2022-09-13T09:23:53;6.32;;;0.98;;
47161;SDS011;32921;53.256;8.198;2022-09-13T09:26:20;11.48;;;1.40;;
47161;SDS011;32921;53.256;8.198;2022-09-13T09:28:54;8.77;;;0.98;;
47161;SDS011;32921;53.256;8.198;2022-09-13T09:31:41;7.28;;;0.90;;
47161;SDS011;32921;53.256;8.198;2022-09-13T09:37:18;7.38;;;1.00;;
47161;SDS011;32921;53.256;8.198;2022-09-13T09:39:50;5.75;;;1.00;;
47161;SDS011;32921;53.256;8.198;2022-09-13T09:42:21;10.55;;;2.00;;
47161;SDS011;32921;53.256;8.198;2022-09-13T09:44:51;9.18;;;1.20;;
47161;SDS011;32921;53.256;8.198;2022-09-13T09:47:25;5.88;;;1.20;;
47161;SDS011;32921;53.256;8.198;2022-09-13T09:49:58;8.40;;;1.00;;
47161;SDS011;32921;53.256;8.198;2022-09-13T09:52:36;6.68;;;1.05;;
47161;SDS011;32921;53.256;8.198;2022-09-13T09:57:54;7.22;;;0.95;;
47161;SDS011;32921;53.256;8.198;2022-09-13T10:00:31;10.98;;;1.10;;
47161;SDS011;32921;53.256;8.198;2022-09-13T10:03:00;9.02;;;1.02;;
47161;SDS011;32921;53.256;8.198;2022-09-13T10:05:29;5.53;;;0.80;;
47161;SDS011;32921;53.256;8.198;2022-09-13T10:08:00;6.57;;;1.00;;
47161;SDS011;32921;53.256;8.198;2022-09-13T10:10:36;11.40;;;1.27;;
47161;SDS011;32921;53.256;8.198;2022-09-13T10:13:11;10.63;;;1.05;;
47161;SDS011;32921;53.256;8.198;2022-09-13T10:15:57;7.40;;;1.00;;
47161;SDS011;32921;53.256;8.198;2022-09-13T10:18:25;6.88;;;1.05;;
47161;SDS011;32921;53.256;8.198;2022-09-13T10:23:26;7.32;;;1.15;;
47161;SDS011;32921;53.256;8.198;2022-09-13T10:26:03;7.65;;;1.42;;
47161;SDS011;32921;53.256;8.198;2022-09-13T10:28:31;5.85;;;1.08;;
47161;SDS011;32921;53.256;8.198;2022-09-13T10:31:01;7.90;;;1.23;;
47161;SDS011;32921;53.256;8.198;2022-09-13T10:33:32;6.88;;;1.10;;
47161;SDS011;32921;53.256;8.198;2022-09-13T10:36:16;6.72;;;1.30;;
47161;SDS011;32921;53.256;8.198;2022-09-13T10:38:56;10.00;;;1.05;;
47161;SDS011;32921;53.256;8.198;2022-09-13T10:41:25;5.97;;;1.13;;
47161;SDS011;32921;53.256;8.198;2022-09-13T10:43:56;9.70;;;1.20;;
47161;SDS011;32921;53.256;8.198;2022-09-13T10:46:23;13.20;;;1.38;;
47161;SDS011;32921;53.256;8.198;2022-09-13T10:48:51;12.05;;;1.58;;
47161;SDS011;32921;53.256;8.198;2022-09-13T10:56:47;7.65;;;1.17;;
47161;SDS011;32921;53.256;8.198;2022-09-13T10:59:15;7.13;;;1.27;;
47161;SDS011;32921;53.256;8.198;2022-09-13T11:09:47;5.95;;;1.00;;
47161;SDS011;32921;53.256;8.198;2022-09-13T11:13:02;6.32;;;1.05;;
47161;SDS011;32921;53.256;8.198;2022-09-13T11:15:30;9.43;;;1.40;;
47161;SDS011;32921;53.256;8.198;2022-09-13T11:26:09;6.15;;;0.85;;
47161;SDS011;32921;53.256;8.198;2022-09-13T11:28:58;6.68;;;1.00;;
47161;SDS011;32921;53.256;8.198;2022-09-13T11:31:59;8.85;;;1.00;;
47161;SDS011;32921;53.256;8.198;2022-09-13T11:40:08;9.95;;;1.65;;
47161;SDS011;32921;53.256;8.198;2022-09-13T11:51:48;6.05;;;0.90;;
47161;SDS011;32921;53.256;8.198;2022-09-13T11:57:16;5.93;;;0.82;;
47161;SDS011;32921;53.256;8.198;2022-09-13T11:59:50;7.53;;;1.13;;
47161;SDS011;32921;53.256;8.198;2022-09-13T12:10:27;5.57;;;0.90;;
47161;SDS011;32921;53.256;8.198;2022-09-13T12:12:57;4.05;;;0.90;;
47161;SDS011;32921;53.256;8.198;2022-09-13T12:15:30;7.70;;;0.90;;
47161;SDS011;32921;53.256;8.198;2022-09-13T12:17:59;8.27;;;1.17;;
47161;SDS011;32921;53.256;8.198;2022-09-13T12:20:47;11.00;;;1.48;;
47161;SDS011;32921;53.256;8.198;2022-09-13T12:23:19;4.90;;;0.95;;
47161;SDS011;32921;53.256;8.198;2022-09-13T12:26:12;7.20;;;1.05;;
47161;SDS011;32921;53.256;8.198;2022-09-13T12:31:24;5.28;;;1.10;;
47161;SDS011;32921;53.256;8.198;2022-09-13T12:33:52;5.82;;;1.00;;
47161;SDS011;32921;53.256;8.198;2022-09-13T12:36:28;6.88;;;0.90;;
47161;SDS011;32921;53.256;8.198;2022-09-13T12:39:18;9.70;;;1.10;;
47161;SDS011;32921;53.256;8.198;2022-09-13T13:01:28;4.43;;;0.93;;
47161;SDS011;32921;53.256;8.198;2022-09-13T13:03:57;4.57;;;1.00;;
47161;SDS011;32921;53.256;8.198;2022-09-13T13:06:38;7.20;;;0.88;;
47161;SDS011;32921;53.256;8.198;2022-09-13T13:09:21;7.53;;;1.15;;
47161;SDS011;32921;53.256;8.198;2022-09-13T13:11:47;6.57;;;1.08;;
47161;SDS011;32921;53.256;8.198;2022-09-13T13:14:25;6.03;;;1.00;;
47161;SDS011;32921;53.256;8.198;2022-09-13T13:16:53;4.85;;;0.80;;
47161;SDS011;32921;53.256;8.198;2022-09-13T13:19:39;7.85;;;1.17;;
47161;SDS011;32921;53.256;8.198;2022-09-13T13:27:57;6.95;;;1.20;;
47161;SDS011;32921;53.256;8.198;2022-09-13T13:30:39;7.50;;;1.20;;
47161;SDS011;32921;53.256;8.198;2022-09-13T13:33:20;5.13;;;1.00;;
47161;SDS011;32921;53.256;8.198;2022-09-13T13:35:50;7.22;;;1.10;;
47161;SDS011;32921;53.256;8.198;2022-09-13T13:40:48;6.80;;;1.10;;
47161;SDS011;32921;53.256;8.198;2022-09-13T13:43:32;8.57;;;1.20;;
47161;SDS011;32921;53.256;8.198;2022-09-13T13:46:22;6.38;;;1.05;;
47161;SDS011;32921;53.256;8.198;2022-09-13T13:48:46;8.65;;;1.30;;
47161;SDS011;32921;53.256;8.198;2022-09-13T13:51:14;6.55;;;1.27;;
47161;SDS011;32921;53.256;8.198;2022-09-13T13:53:45;12.65;;;1.30;;
47161;SDS011;32921;53.256;8.198;2022-09-13T13:56:16;9.93;;;1.40;;
47161;SDS011;32921;53.256;8.198;2022-09-13T13:58:46;8.85;;;1.25;;
47161;SDS011;32921;53.256;8.198;2022-09-13T14:04:52;6.88;;;1.00;;
47161;SDS011;32921;53.256;8.198;2022-09-13T14:10:16;9.18;;;1.27;;
47161;SDS011;32921;53.256;8.198;2022-09-13T14:15:52;8.38;;;1.50;;
47161;SDS011;32921;53.256;8.198;2022-09-13T14:18:32;9.68;;;1.35;;
47161;SDS011;32921;53.256;8.198;2022-09-13T14:21:01;7.20;;;1.23;;
47161;SDS011;32921;53.256;8.198;2022-09-13T14:23:29;11.32;;;1.20;;
47161;SDS011;32921;53.256;8.198;2022-09-13T14:25:56;9.73;;;1.30;;
47161;SDS011;32921;53.256;8.198;2022-09-13T14:28:23;8.70;;;1.58;;
47161;SDS011;32921;53.256;8.198;2022-09-13T14:30:54;8.57;;;1.25;;
47161;SDS011;32921;53.256;8.198;2022-09-13T14:33:23;10.13;;;1.25;;
47161;SDS011;32921;53.256;8.198;2022-09-13T14:36:03;11.25;;;1.42;;
47161;SDS011;32921;53.256;8.198;2022-09-13T14:38:31;8.73;;;1.20;;
47161;SDS011;32921;53.256;8.198;2022-09-13T14:41:01;6.03;;;1.23;;
47161;SDS011;32921;53.256;8.198;2022-09-13T14:43:35;8.40;;;1.20;;
47161;SDS011;32921;53.256;8.198;2022-09-13T14:46:02;8.32;;;1.40;;
47161;SDS011;32921;53.256;8.198;2022-09-13T14:49:00;6.68;;;1.30;;
47161;SDS011;32921;53.256;8.198;2022-09-13T14:54:18;8.80;;;1.38;;
47161;SDS011;32921;53.256;8.198;2022-09-13T14:56:51;6.13;;;1.08;;
47161;SDS011;32921;53.256;8.198;2022-09-13T14:59:28;8.82;;;1.30;;
47161;SDS011;32921;53.256;8.198;2022-09-13T15:02:17;10.77;;;1.63;;
47161;SDS011;32921;53.256;8.198;2022-09-13T15:04:46;6.07;;;1.10;;
47161;SDS011;32921;53.256;8.198;2022-09-13T15:07:21;9.70;;;1.70;;
47161;SDS011;32921;53.256;8.198;2022-09-13T15:09:55;8.55;;;1.40;;
47161;SDS011;32921;53.256;8.198;2022-09-13T15:12:24;10.05;;;1.35;;
47161;SDS011;32921;53.256;8.198;2022-09-13T15:17:51;8.07;;;1.30;;
47161;SDS011;32921;53.256;8.198;2022-09-13T15:23:42;7.65;;;1.50;;
47161;SDS011;32921;53.256;8.198;2022-09-13T15:26:21;7.32;;;1.40;;
47161;SDS011;32921;53.256;8.198;2022-09-13T15:28:55;9.73;;;1.25;;
47161;SDS011;32921;53.256;8.198;2022-09-13T15:31:24;8.38;;;1.10;;
47161;SDS011;32921;53.256;8.198;2022-09-13T15:37:07;11.82;;;1.63;;
47161;SDS011;32921;53.256;8.198;2022-09-13T15:39:48;9.73;;;1.20;;
47161;SDS011;32921;53.256;8.198;2022-09-13T15:42:25;7.07;;;1.20;;
47161;SDS011;32921;53.256;8.198;2022-09-13T15:44:50;7.40;;;1.30;;
47161;SDS011;32921;53.256;8.198;2022-09-13T15:47:17;6.55;;;1.25;;
47161;SDS011;32921;53.256;8.198;2022-09-13T15:49:47;10.30;;;1.27;;
47161;SDS011;32921;53.256;8.198;2022-09-13T15:52:14;6.43;;;1.25;;
47161;SDS011;32921;53.256;8.198;2022-09-13T15:54:41;9.90;;;1.20;;
47161;SDS011;32921;53.256;8.198;2022-09-13T15:57:08;6.28;;;1.00;;
47161;SDS011;32921;53.256;8.198;2022-09-13T15:59:50;8.10;;;1.35;;
47161;SDS011;32921;53.256;8.198;2022-09-13T16:02:18;10.40;;;1.30;;
47161;SDS011;32921;53.256;8.198;2022-09-13T16:04:52;8.88;;;1.20;;
47161;SDS011;32921;53.256;8.198;2022-09-13T16:07:18;8.10;;;1.10;;
47161;SDS011;32921;53.256;8.198;2022-09-13T16:09:45;8.70;;;1.30;;
47161;SDS011;32921;53.256;8.198;2022-09-13T16:12:12;5.53;;;0.93;;
47161;SDS011;32921;53.256;8.198;2022-09-13T16:14:38;8.65;;;1.10;;
47161;SDS011;32921;53.256;8.198;2022-09-13T16:17:06;10.05;;;1.23;;
47161;SDS011;32921;53.256;8.198;2022-09-13T16:19:36;7.97;;;1.40;;
47161;SDS011;32921;53.256;8.198;2022-09-13T16:22:02;7.85;;;1.10;;
47161;SDS011;32921;53.256;8.198;2022-09-13T16:24:28;9.13;;;1.40;;
47161;SDS011;32921;53.256;8.198;2022-09-13T16:26:53;12.27;;;1.42;;
47161;SDS011;32921;53.256;8.198;2022-09-13T16:29:19;7.35;;;1.20;;
47161;SDS011;32921;53.256;8.198;2022-09-13T16:31:45;12.07;;;1.30;;
47161;SDS011;32921;53.256;8.198;2022-09-13T16:34:10;10.48;;;1.10;;
47161;SDS011;32921;53.256;8.198;2022-09-13T16:36:36;11.05;;;1.25;;
47161;SDS011;32921;53.256;8.198;2022-09-13T16:39:02;7.93;;;1.00;;
47161;SDS011;32921;53.256;8.198;2022-09-13T16:41:27;6.57;;;1.10;;
47161;SDS011;32921;53.256;8.198;2022-09-13T16:43:53;11.35;;;1.13;;
47161;SDS011;32921;53.256;8.198;2022-09-13T16:46:20;10.00;;;1.25;;
47161;SDS011;32921;53.256;8.198;2022-09-13T16:48:51;8.13;;;1.08;;
47161;SDS011;32921;53.256;8.198;2022-09-13T16:51:20;9.98;;;1.20;;
47161;SDS011;32921;53.256;8.198;2022-09-13T16:53:47;11.43;;;1.42;;
47161;SDS011;32921;53.256;8.198;2022-09-13T16:56:15;9.93;;;1.38;;
47161;SDS011;32921;53.256;8.198;2022-09-13T16:58:42;8.65;;;1.23;;
47161;SDS011;32921;53.256;8.198;2022-09-13T17:01:11;6.88;;;1.20;;
47161;SDS011;32921;53.256;8.198;2022-09-13T17:03:39;9.93;;;1.20;;
47161;SDS011;32921;53.256;8.198;2022-09-13T17:06:06;8.60;;;1.00;;
47161;SDS011;32921;53.256;8.198;2022-09-13T17:08:34;11.07;;;1.08;;
47161;SDS011;32921;53.256;8.198;2022-09-13T17:11:09;13.80;;;1.38;;
47161;SDS011;32921;53.256;8.198;2022-09-13T17:13:36;17.23;;;1.58;;
47161;SDS011;32921;53.256;8.198;2022-09-13T17:16:03;12.32;;;2.33;;
47161;SDS011;32921;53.256;8.198;2022-09-13T17:18:30;15.10;;;2.30;;
47161;SDS011;32921;53.256;8.198;2022-09-13T17:20:57;10.75;;;1.77;;
47161;SDS011;32921;53.256;8.198;2022-09-13T17:23:24;16.05;;;1.42;;
47161;SDS011;32921;53.256;8.198;2022-09-13T17:25:50;10.27;;;1.38;;
47161;SDS011;32921;53.256;8.198;2022-09-13T17:28:16;10.43;;;1.30;;
47161;SDS011;32921;53.256;8.198;2022-09-13T17:30:43;8.43;;;1.23;;
47161;SDS011;32921;53.256;8.198;2022-09-13T17:33:10;12.60;;;1.50;;
47161;SDS011;32921;53.256;8.198;2022-09-13T17:35:36;10.95;;;1.13;;
47161;SDS011;32921;53.256;8.198;2022-09-13T17:38:02;6.82;;;1.08;;
47161;SDS011;32921;53.256;8.198;2022-09-13T17:40:28;11.25;;;1.48;;
47161;SDS011;32921;53.256;8.198;2022-09-13T17:42:55;11.50;;;1.40;;
47161;SDS011;32921;53.256;8.198;2022-09-13T17:45:21;14.00;;;1.80;;
47161;SDS011;32921;53.256;8.198;2022-09-13T17:47:50;9.55;;;1.40;;
47161;SDS011;32921;53.256;8.198;2022-09-13T17:50:17;12.63;;;1.23;;
47161;SDS011;32921;53.256;8.198;2022-09-13T17:52:42;12.55;;;1.30;;
47161;SDS011;32921;53.256;8.198;2022-09-13T17:55:09;9.52;;;1.30;;